createdAt,value
2023-08-24T00:00:21.428Z,0.00
2023-08-24T00:01:21.425Z,0.00
2023-08-24T00:02:21.438Z,0.00
2023-08-24T00:03:21.466Z,0.00
2023-08-24T00:04:21.468Z,0.00
2023-08-24T00:05:21.443Z,0.00
2023-08-24T00:06:21.348Z,0.00
2023-08-24T00:07:21.409Z,0.00
2023-08-24T00:08:21.379Z,0.00
2023-08-24T00:09:21.389Z,0.00
2023-08-24T00:10:21.310Z,0.00
2023-08-24T00:11:21.336Z,0.00
2023-08-24T00:12:21.457Z,0.00
2023-08-24T00:13:21.309Z,0.00
2023-08-24T00:14:21.327Z,0.00
2023-08-24T00:15:21.249Z,0.00
2023-08-24T00:16:21.345Z,0.00
2023-08-24T00:17:21.267Z,0.00
2023-08-24T00:18:21.374Z,0.00
2023-08-24T00:19:21.289Z,0.00
2023-08-24T00:20:21.232Z,0.00
2023-08-24T00:21:21.252Z,0.00
2023-08-24T00:22:21.210Z,0.00
2023-08-24T00:23:21.178Z,0.00
2023-08-24T00:24:21.218Z,0.00
2023-08-24T00:25:21.200Z,0.00
2023-08-24T00:26:21.158Z,0.00
2023-08-24T00:27:21.202Z,0.00
2023-08-24T00:28:21.323Z,0.00
2023-08-24T00:29:21.101Z,0.00
2023-08-24T00:30:21.183Z,0.00
2023-08-24T00:31:21.113Z,0.00
2023-08-24T00:32:21.214Z,0.00
2023-08-24T00:33:21.102Z,0.00
2023-08-24T00:34:21.081Z,0.00
2023-08-24T00:35:21.141Z,0.00
2023-08-24T00:36:21.078Z,0.00
2023-08-24T00:37:21.015Z,0.00
2023-08-24T00:38:21.044Z,0.00
2023-08-24T00:39:21.061Z,0.00
2023-08-24T00:40:21.110Z,0.00
2023-08-24T00:41:21.027Z,0.00
2023-08-24T00:42:21.040Z,0.00
2023-08-24T00:43:21.046Z,0.00
2023-08-24T00:44:20.967Z,0.00
2023-08-24T00:45:20.982Z,0.00
2023-08-24T00:46:20.987Z,0.00
2023-08-24T00:47:20.961Z,0.00
2023-08-24T00:48:20.962Z,0.00
2023-08-24T00:49:20.887Z,0.00
2023-08-24T00:50:20.985Z,0.00
2023-08-24T00:51:20.902Z,0.00
2023-08-24T00:52:21.013Z,0.00
2023-08-24T00:53:20.895Z,0.00
2023-08-24T00:54:20.865Z,0.00
2023-08-24T00:55:20.961Z,0.00
2023-08-24T00:56:20.831Z,0.00
2023-08-24T00:57:20.945Z,0.00
2023-08-24T00:58:20.815Z,0.00
2023-08-24T00:59:20.838Z,0.00
2023-08-24T01:00:20.817Z,0.00
2023-08-24T01:01:20.853Z,0.00
2023-08-24T01:02:20.838Z,0.00
2023-08-24T01:03:20.842Z,0.00
2023-08-24T01:04:20.782Z,0.00
2023-08-24T01:05:20.744Z,0.00
2023-08-24T01:06:20.717Z,0.00
2023-08-24T01:07:20.783Z,0.00
2023-08-24T01:08:20.723Z,0.00
2023-08-24T01:09:20.696Z,0.00
2023-08-24T01:10:20.737Z,0.00
2023-08-24T01:11:20.694Z,0.00
2023-08-24T01:12:20.693Z,0.00
2023-08-24T01:13:20.631Z,0.00
2023-08-24T01:14:20.697Z,0.00
2023-08-24T01:15:20.631Z,0.00
2023-08-24T01:16:20.629Z,0.00
2023-08-24T01:17:20.747Z,0.00
2023-08-24T01:18:20.666Z,0.00
2023-08-24T01:19:20.597Z,0.00
2023-08-24T01:20:20.659Z,0.00
2023-08-24T01:21:20.547Z,0.00
2023-08-24T01:22:20.532Z,0.00
2023-08-24T01:23:20.547Z,0.00
2023-08-24T01:24:20.611Z,0.00
2023-08-24T01:25:20.597Z,0.00
2023-08-24T01:26:20.508Z,0.00
2023-08-24T01:27:20.628Z,0.00
2023-08-24T01:28:20.479Z,0.00
2023-08-24T01:29:20.559Z,0.00
2023-08-24T01:30:20.476Z,0.00
2023-08-24T01:31:20.566Z,0.00
2023-08-24T01:32:20.496Z,0.00
2023-08-24T01:33:20.423Z,0.00
2023-08-24T01:34:20.439Z,0.00
2023-08-24T01:35:20.473Z,0.00
2023-08-24T01:36:20.469Z,0.00
2023-08-24T01:37:20.409Z,0.00
2023-08-24T01:38:20.410Z,0.00
2023-08-24T01:39:20.415Z,0.00
2023-08-24T01:40:20.381Z,0.00
2023-08-24T01:41:20.350Z,0.00
2023-08-24T01:42:20.390Z,0.00
2023-08-24T01:43:28.636Z,0.00
2023-08-24T01:44:21.406Z,0.00
2023-08-24T01:45:20.344Z,0.00
2023-08-24T01:46:20.325Z,0.00
2023-08-24T01:47:20.301Z,0.00
2023-08-24T01:48:20.290Z,0.00
2023-08-24T01:49:20.291Z,0.00
2023-08-24T01:50:20.303Z,0.00
2023-08-24T01:51:20.250Z,0.00
2023-08-24T01:52:20.302Z,0.00
2023-08-24T01:53:20.229Z,0.00
2023-08-24T01:54:20.223Z,0.00
2023-08-24T01:55:20.254Z,0.00
2023-08-24T01:56:20.191Z,0.00
2023-08-24T01:57:20.211Z,0.00
2023-08-24T01:58:20.231Z,0.00
2023-08-24T01:59:20.145Z,0.00
2023-08-24T02:00:20.165Z,0.00
2023-08-24T02:01:20.225Z,0.00
2023-08-24T02:02:20.517Z,0.00
2023-08-24T02:03:20.283Z,0.00
2023-08-24T02:04:20.194Z,0.00
2023-08-24T02:05:20.133Z,0.00
2023-08-24T02:06:20.130Z,0.00
2023-08-24T02:07:20.095Z,0.00
2023-08-24T02:08:20.136Z,0.00
2023-08-24T02:09:20.076Z,0.00
2023-08-24T02:10:20.049Z,0.00
2023-08-24T02:11:20.043Z,0.00
2023-08-24T02:12:20.035Z,0.00
2023-08-24T02:13:20.019Z,0.00
2023-08-24T02:14:20.027Z,0.00
2023-08-24T02:15:20.000Z,0.00
2023-08-24T02:16:20.128Z,0.00
2023-08-24T02:17:19.946Z,0.00
2023-08-24T02:18:20.016Z,0.00
2023-08-24T02:19:19.974Z,0.00
2023-08-24T02:20:19.945Z,0.00
2023-08-24T02:21:19.952Z,0.00
2023-08-24T02:22:19.913Z,0.00
2023-08-24T02:23:19.902Z,0.00
2023-08-24T02:24:19.916Z,0.00
2023-08-24T02:25:19.914Z,0.00
2023-08-24T02:26:19.897Z,0.00
2023-08-24T02:27:19.850Z,0.00
2023-08-24T02:28:19.878Z,0.00
2023-08-24T02:29:19.863Z,0.00
2023-08-24T02:30:19.854Z,0.00
2023-08-24T02:31:19.852Z,0.00
2023-08-24T02:32:19.809Z,0.00
2023-08-24T02:33:19.851Z,0.00
2023-08-24T02:34:19.782Z,0.00
2023-08-24T02:35:19.919Z,0.00
2023-08-24T02:36:19.795Z,0.00
2023-08-24T02:37:19.762Z,0.00
2023-08-24T02:38:19.800Z,0.00
2023-08-24T02:39:19.789Z,0.00
2023-08-24T02:40:19.745Z,0.00
2023-08-24T02:41:19.756Z,0.00
2023-08-24T02:42:19.736Z,0.00
2023-08-24T02:43:19.685Z,0.00
2023-08-24T02:44:19.695Z,0.00
2023-08-24T02:45:19.675Z,0.00
2023-08-24T02:46:19.727Z,0.00
2023-08-24T02:47:19.680Z,0.00
2023-08-24T02:48:19.636Z,0.00
2023-08-24T02:49:20.156Z,0.00
2023-08-24T02:50:19.629Z,0.00
2023-08-24T02:51:19.620Z,0.00
2023-08-24T02:52:19.670Z,0.00
2023-08-24T02:53:19.622Z,0.00
2023-08-24T02:54:19.555Z,0.00
2023-08-24T02:55:19.637Z,0.00
2023-08-24T02:56:19.551Z,0.00
2023-08-24T02:57:19.570Z,0.00
2023-08-24T02:58:19.546Z,0.00
2023-08-24T02:59:19.514Z,0.00
2023-08-24T03:00:19.548Z,0.00
2023-08-24T03:01:19.537Z,0.00
2023-08-24T03:02:19.589Z,0.00
2023-08-24T03:03:19.474Z,0.00
2023-08-24T03:04:19.492Z,0.00
2023-08-24T03:05:19.508Z,0.00
2023-08-24T03:06:19.472Z,0.00
2023-08-24T03:07:19.444Z,0.00
2023-08-24T03:08:19.443Z,0.00
2023-08-24T03:09:19.395Z,0.00
2023-08-24T03:10:19.389Z,0.00
2023-08-24T03:11:19.382Z,0.00
2023-08-24T03:12:19.437Z,0.00
2023-08-24T03:13:19.423Z,0.00
2023-08-24T03:14:19.442Z,0.00
2023-08-24T03:15:19.320Z,0.00
2023-08-24T03:16:19.416Z,0.00
2023-08-24T03:17:19.386Z,0.00
2023-08-24T03:18:19.345Z,0.00
2023-08-24T03:19:19.267Z,0.00
2023-08-24T03:20:19.321Z,0.00
2023-08-24T03:21:19.303Z,0.00
2023-08-24T03:22:19.269Z,0.00
2023-08-24T03:23:19.267Z,0.00
2023-08-24T03:24:19.283Z,0.00
2023-08-24T03:25:19.237Z,0.00
2023-08-24T03:26:19.242Z,0.00
2023-08-24T03:27:19.291Z,0.00
2023-08-24T03:28:19.178Z,0.00
2023-08-24T03:29:19.292Z,0.00
2023-08-24T03:30:19.255Z,0.00
2023-08-24T03:31:19.150Z,0.00
2023-08-24T03:32:19.134Z,0.00
2023-08-24T03:33:19.181Z,0.00
2023-08-24T03:34:19.100Z,0.00
2023-08-24T03:35:19.100Z,0.00
2023-08-24T03:36:19.099Z,0.00
2023-08-24T03:37:19.098Z,0.00
2023-08-24T03:38:19.128Z,0.00
2023-08-24T03:39:19.040Z,0.00
2023-08-24T03:40:19.136Z,0.00
2023-08-24T03:41:19.042Z,0.00
2023-08-24T03:42:19.174Z,0.00
2023-08-24T03:43:18.978Z,0.00
2023-08-24T03:44:19.049Z,0.00
2023-08-24T03:45:18.949Z,0.00
2023-08-24T03:46:19.305Z,0.00
2023-08-24T03:47:18.984Z,0.00
2023-08-24T03:48:19.006Z,0.00
2023-08-24T03:49:18.924Z,0.00
2023-08-24T03:50:18.918Z,0.00
2023-08-24T03:51:18.965Z,0.00
2023-08-24T03:52:18.952Z,0.00
2023-08-24T03:53:18.913Z,0.00
2023-08-24T03:54:18.880Z,0.00
2023-08-24T03:55:18.888Z,0.00
2023-08-24T03:56:18.889Z,0.00
2023-08-24T03:57:18.872Z,0.00
2023-08-24T03:58:18.854Z,0.00
2023-08-24T03:59:18.851Z,0.00
2023-08-24T04:00:18.821Z,0.00
2023-08-24T04:01:18.994Z,0.00
2023-08-24T04:02:18.915Z,5.62
2023-08-24T04:03:18.847Z,5.62
2023-08-24T04:04:18.785Z,5.62
2023-08-24T04:05:18.723Z,5.62
2023-08-24T04:06:18.783Z,5.62
2023-08-24T04:07:18.786Z,5.62
2023-08-24T04:08:18.717Z,5.62
2023-08-24T04:09:18.737Z,5.62
2023-08-24T04:10:18.738Z,5.62
2023-08-24T04:11:18.752Z,5.62
2023-08-24T04:12:18.699Z,11.25
2023-08-24T04:13:18.784Z,11.25
2023-08-24T04:14:22.821Z,11.25
2023-08-24T04:15:18.750Z,11.25
2023-08-24T04:16:18.723Z,11.25
2023-08-24T04:17:18.629Z,11.25
2023-08-24T04:18:18.673Z,16.88
2023-08-24T04:19:18.618Z,16.88
2023-08-24T04:20:18.590Z,16.88
2023-08-24T04:21:18.595Z,16.88
2023-08-24T04:22:18.630Z,16.88
2023-08-24T04:23:18.609Z,16.88
2023-08-24T04:24:18.551Z,22.50
2023-08-24T04:25:18.580Z,22.50
2023-08-24T04:26:18.572Z,22.50
2023-08-24T04:27:18.582Z,22.50
2023-08-24T04:28:18.545Z,28.12
2023-08-24T04:29:18.533Z,28.12
2023-08-24T04:30:18.488Z,28.12
2023-08-24T04:31:18.483Z,33.75
2023-08-24T04:32:18.555Z,33.75
2023-08-24T04:33:18.456Z,39.38
2023-08-24T04:34:18.460Z,39.38
2023-08-24T04:35:18.547Z,39.38
2023-08-24T04:36:18.412Z,45.00
2023-08-24T04:37:18.396Z,45.00
2023-08-24T04:38:18.459Z,50.62
2023-08-24T04:39:18.394Z,56.25
2023-08-24T04:40:18.375Z,56.25
2023-08-24T04:41:18.348Z,56.25
2023-08-24T04:42:18.388Z,56.25
2023-08-24T04:43:18.394Z,61.88
2023-08-24T04:44:18.339Z,61.88
2023-08-24T04:45:18.326Z,67.50
2023-08-24T04:46:18.362Z,67.50
2023-08-24T04:47:18.307Z,73.12
2023-08-24T04:48:18.413Z,73.12
2023-08-24T04:49:18.280Z,78.75
2023-08-24T04:50:18.277Z,78.75
2023-08-24T04:51:18.287Z,78.75
2023-08-24T04:52:18.312Z,84.38
2023-08-24T04:53:18.324Z,84.38
2023-08-24T04:54:18.252Z,84.38
2023-08-24T04:55:18.198Z,84.38
2023-08-24T04:56:18.199Z,84.38
2023-08-24T04:57:18.216Z,90.00
2023-08-24T04:58:18.223Z,90.00
2023-08-24T04:59:18.294Z,95.62
2023-08-24T05:00:18.176Z,95.62
2023-08-24T05:01:18.191Z,95.62
2023-08-24T05:02:18.171Z,106.88
2023-08-24T05:03:18.208Z,112.50
2023-08-24T05:04:18.153Z,118.12
2023-08-24T05:05:18.222Z,118.12
2023-08-24T05:06:18.161Z,118.12
2023-08-24T05:07:18.125Z,118.12
2023-08-24T05:08:18.089Z,123.75
2023-08-24T05:09:18.161Z,123.75
2023-08-24T05:10:18.080Z,129.38
2023-08-24T05:11:18.109Z,135.00
2023-08-24T05:12:18.246Z,140.62
2023-08-24T05:13:18.048Z,146.25
2023-08-24T05:14:18.088Z,151.88
2023-08-24T05:15:18.024Z,151.88
2023-08-24T05:16:18.072Z,151.88
2023-08-24T05:17:18.098Z,157.50
2023-08-24T05:18:18.023Z,163.12
2023-08-24T05:19:17.998Z,168.75
2023-08-24T05:20:18.072Z,174.38
2023-08-24T05:21:18.107Z,185.62
2023-08-24T05:22:17.969Z,174.38
2023-08-24T05:23:17.939Z,180.00
2023-08-24T05:24:17.934Z,174.38
2023-08-24T05:25:17.916Z,174.38
2023-08-24T05:26:17.906Z,180.00
2023-08-24T05:27:17.896Z,421.88
2023-08-24T05:28:17.930Z,270.00
2023-08-24T05:29:17.942Z,196.88
2023-08-24T05:30:18.014Z,208.12
2023-08-24T05:31:20.242Z,225.00
2023-08-24T05:32:17.913Z,343.12
2023-08-24T05:33:17.846Z,343.12
2023-08-24T05:34:17.786Z,247.50
2023-08-24T05:35:17.918Z,247.50
2023-08-24T05:36:17.817Z,675.00
2023-08-24T05:37:17.797Z,646.88
2023-08-24T05:38:17.862Z,675.00
2023-08-24T05:39:17.745Z,663.75
2023-08-24T05:40:17.753Z,613.12
2023-08-24T05:41:17.745Z,354.38
2023-08-24T05:42:17.740Z,298.12
2023-08-24T05:43:17.757Z,264.38
2023-08-24T05:44:17.746Z,326.25
2023-08-24T05:45:17.983Z,523.12
2023-08-24T05:46:17.726Z,292.50
2023-08-24T05:47:17.760Z,618.75
2023-08-24T05:48:17.928Z,1305.00
2023-08-24T05:49:17.773Z,832.50
2023-08-24T05:50:17.614Z,1068.75
2023-08-24T05:51:17.734Z,1293.75
2023-08-24T05:52:17.640Z,1276.88
2023-08-24T05:53:17.725Z,1096.88
2023-08-24T05:54:17.619Z,967.50
2023-08-24T05:55:17.596Z,1080.00
2023-08-24T05:56:17.662Z,995.62
2023-08-24T05:57:17.578Z,568.12
2023-08-24T05:58:17.556Z,708.75
2023-08-24T05:59:17.560Z,360.00
2023-08-24T06:00:17.551Z,292.50
2023-08-24T06:01:17.594Z,399.38
2023-08-24T06:02:17.507Z,680.62
2023-08-24T06:03:17.492Z,630.00
2023-08-24T06:04:17.553Z,517.50
2023-08-24T06:05:17.484Z,466.88
2023-08-24T06:06:17.505Z,511.88
2023-08-24T06:07:17.474Z,523.12
2023-08-24T06:08:17.466Z,523.12
2023-08-24T06:09:17.469Z,523.12
2023-08-24T06:10:17.498Z,506.25
2023-08-24T06:11:17.442Z,489.38
2023-08-24T06:12:17.464Z,444.38
2023-08-24T06:13:17.384Z,393.75
2023-08-24T06:14:17.477Z,376.88
2023-08-24T06:15:17.377Z,388.12
2023-08-24T06:16:17.413Z,258.75
2023-08-24T06:17:17.413Z,309.38
2023-08-24T06:18:17.422Z,343.12
2023-08-24T06:19:17.330Z,343.12
2023-08-24T06:20:17.350Z,343.12
2023-08-24T06:21:17.425Z,337.50
2023-08-24T06:22:17.339Z,331.88
2023-08-24T06:23:17.366Z,331.88
2023-08-24T06:24:17.316Z,331.88
2023-08-24T06:25:17.284Z,331.88
2023-08-24T06:26:17.245Z,309.38
2023-08-24T06:27:18.112Z,320.62
2023-08-24T06:28:17.662Z,264.38
2023-08-24T06:29:17.260Z,326.25
2023-08-24T06:30:17.253Z,326.25
2023-08-24T06:31:17.449Z,326.25
2023-08-24T06:32:17.239Z,331.88
2023-08-24T06:33:17.197Z,337.50
2023-08-24T06:34:17.282Z,343.12
2023-08-24T06:35:17.207Z,354.38
2023-08-24T06:36:17.167Z,343.12
2023-08-24T06:37:17.228Z,337.50
2023-08-24T06:38:17.242Z,331.88
2023-08-24T06:39:17.124Z,309.38
2023-08-24T06:40:17.142Z,320.62
2023-08-24T06:41:17.102Z,326.25
2023-08-24T06:42:17.122Z,320.62
2023-08-24T06:43:17.177Z,320.62
2023-08-24T06:44:17.088Z,315.00
2023-08-24T06:45:17.093Z,315.00
2023-08-24T06:46:17.109Z,309.38
2023-08-24T06:47:17.084Z,309.38
2023-08-24T06:48:17.060Z,309.38
2023-08-24T06:49:17.177Z,303.75
2023-08-24T06:50:17.077Z,303.75
2023-08-24T06:51:17.022Z,303.75
2023-08-24T06:52:17.186Z,298.12
2023-08-24T06:53:17.033Z,270.00
2023-08-24T06:54:17.013Z,258.75
2023-08-24T06:55:17.058Z,258.75
2023-08-24T06:56:16.966Z,253.12
2023-08-24T06:57:17.108Z,247.50
2023-08-24T06:58:16.980Z,241.88
2023-08-24T06:59:17.017Z,241.88
2023-08-24T07:00:16.920Z,236.25
2023-08-24T07:01:16.976Z,230.62
2023-08-24T07:02:16.908Z,230.62
2023-08-24T07:03:17.202Z,241.88
2023-08-24T07:04:16.896Z,241.88
2023-08-24T07:05:16.885Z,247.50
2023-08-24T07:06:16.853Z,225.00
2023-08-24T07:07:16.911Z,253.12
2023-08-24T07:08:16.843Z,264.38
2023-08-24T07:09:16.938Z,270.00
2023-08-24T07:10:16.830Z,275.62
2023-08-24T07:11:16.783Z,253.12
2023-08-24T07:12:16.804Z,275.62
2023-08-24T07:13:16.920Z,270.00
2023-08-24T07:14:16.856Z,258.75
2023-08-24T07:15:16.764Z,253.12
2023-08-24T07:16:16.818Z,253.12
2023-08-24T07:17:16.855Z,247.50
2023-08-24T07:18:16.724Z,241.88
2023-08-24T07:19:17.853Z,241.88
2023-08-24T07:20:16.764Z,247.50
2023-08-24T07:21:16.944Z,241.88
2023-08-24T07:22:16.712Z,241.88
2023-08-24T07:23:16.684Z,241.88
2023-08-24T07:24:17.068Z,241.88
2023-08-24T07:25:16.717Z,241.88
2023-08-24T07:26:16.664Z,241.88
2023-08-24T07:27:16.649Z,241.88
2023-08-24T07:28:16.664Z,241.88
2023-08-24T07:29:16.638Z,241.88
2023-08-24T07:30:31.065Z,241.88
2023-08-24T07:31:17.672Z,241.88
2023-08-24T07:32:16.719Z,241.88
2023-08-24T07:33:16.619Z,247.50
2023-08-24T07:34:16.573Z,247.50
2023-08-24T07:35:16.563Z,253.12
2023-08-24T07:36:16.583Z,253.12
2023-08-24T07:37:16.539Z,264.38
2023-08-24T07:38:16.607Z,258.75
2023-08-24T07:39:16.512Z,264.38
2023-08-24T07:40:16.537Z,275.62
2023-08-24T07:41:16.533Z,281.25
2023-08-24T07:42:16.485Z,286.88
2023-08-24T07:43:16.547Z,298.12
2023-08-24T07:44:16.554Z,298.12
2023-08-24T07:45:16.506Z,303.75
2023-08-24T07:46:16.479Z,303.75
2023-08-24T07:47:16.460Z,303.75
2023-08-24T07:48:16.556Z,303.75
2023-08-24T07:49:16.393Z,303.75
2023-08-24T07:50:16.568Z,303.75
2023-08-24T07:51:16.397Z,303.75
2023-08-24T07:52:16.421Z,303.75
2023-08-24T07:53:16.379Z,303.75
2023-08-24T07:54:16.400Z,309.38
2023-08-24T07:55:16.392Z,315.00
2023-08-24T07:56:16.665Z,320.62
2023-08-24T07:57:16.361Z,331.88
2023-08-24T07:58:17.229Z,343.12
2023-08-24T07:59:16.352Z,354.38
2023-08-24T08:00:16.375Z,360.00
2023-08-24T08:01:16.323Z,371.25
2023-08-24T08:02:16.346Z,376.88
2023-08-24T08:03:17.175Z,388.12
2023-08-24T08:04:17.895Z,399.38
2023-08-24T08:05:16.252Z,405.00
2023-08-24T08:06:16.286Z,421.88
2023-08-24T08:07:18.075Z,427.50
2023-08-24T08:08:18.083Z,421.88
2023-08-24T08:09:16.531Z,427.50
2023-08-24T08:10:16.340Z,427.50
2023-08-24T08:11:18.140Z,427.50
2023-08-24T08:12:17.030Z,450.00
2023-08-24T08:13:16.187Z,438.75
2023-08-24T08:14:16.179Z,433.12
2023-08-24T08:15:16.143Z,416.25
2023-08-24T08:16:17.009Z,410.62
2023-08-24T08:17:16.615Z,405.00
2023-08-24T08:18:16.404Z,410.62
2023-08-24T08:19:16.138Z,416.25
2023-08-24T08:20:16.162Z,393.75
2023-08-24T08:21:18.417Z,388.12
2023-08-24T08:22:16.399Z,416.25
2023-08-24T08:23:16.108Z,416.25
2023-08-24T08:24:25.289Z,444.38
2023-08-24T08:25:17.790Z,472.50
2023-08-24T08:26:16.383Z,506.25
2023-08-24T08:27:16.021Z,455.62
2023-08-24T08:28:17.755Z,444.38
2023-08-24T08:29:16.028Z,433.12
2023-08-24T08:30:16.027Z,416.25
2023-08-24T08:31:16.102Z,399.38
2023-08-24T08:32:16.105Z,382.50
2023-08-24T08:33:15.989Z,365.62
2023-08-24T08:34:15.983Z,343.12
2023-08-24T08:35:15.987Z,320.62
2023-08-24T08:36:15.974Z,309.38
2023-08-24T08:37:17.031Z,298.12
2023-08-24T08:38:16.514Z,281.25
2023-08-24T08:39:15.971Z,275.62
2023-08-24T08:40:16.128Z,270.00
2023-08-24T08:41:17.143Z,264.38
2023-08-24T08:42:16.522Z,258.75
2023-08-24T08:43:15.838Z,258.75
2023-08-24T08:44:17.794Z,258.75
2023-08-24T08:45:15.964Z,258.75
2023-08-24T08:46:15.920Z,253.12
2023-08-24T08:47:15.821Z,253.12
2023-08-24T08:48:15.866Z,247.50
2023-08-24T08:49:15.907Z,247.50
2023-08-24T08:50:16.560Z,247.50
2023-08-24T08:51:17.498Z,241.88
2023-08-24T08:52:16.183Z,241.88
2023-08-24T08:53:15.985Z,241.88
2023-08-24T08:54:15.730Z,247.50
2023-08-24T08:55:17.624Z,253.12
2023-08-24T08:56:15.745Z,258.75
2023-08-24T08:57:15.968Z,270.00
2023-08-24T08:58:15.716Z,281.25
2023-08-24T08:59:16.427Z,286.88
2023-08-24T09:00:15.695Z,292.50
2023-08-24T09:01:16.033Z,298.12
2023-08-24T09:02:16.668Z,292.50
2023-08-24T09:03:17.078Z,292.50
2023-08-24T09:04:16.263Z,286.88
2023-08-24T09:05:15.830Z,281.25
2023-08-24T09:06:15.618Z,275.62
2023-08-24T09:07:15.588Z,270.00
2023-08-24T09:08:16.281Z,270.00
2023-08-24T09:09:16.073Z,270.00
2023-08-24T09:10:15.604Z,275.62
2023-08-24T09:11:15.590Z,281.25
2023-08-24T09:12:15.562Z,298.12
2023-08-24T09:13:15.565Z,309.38
2023-08-24T09:14:15.540Z,331.88
2023-08-24T09:15:15.544Z,309.38
2023-08-24T09:16:16.379Z,511.88
2023-08-24T09:17:15.560Z,511.88
2023-08-24T09:18:15.533Z,511.88
2023-08-24T09:19:15.535Z,478.12
2023-08-24T09:20:17.440Z,444.38
2023-08-24T09:21:15.473Z,382.50
2023-08-24T09:22:15.959Z,286.88
2023-08-24T09:23:15.427Z,275.62
2023-08-24T09:24:15.501Z,270.00
2023-08-24T09:25:15.411Z,264.38
2023-08-24T09:26:16.088Z,253.12
2023-08-24T09:27:15.410Z,247.50
2023-08-24T09:28:15.445Z,247.50
2023-08-24T09:29:15.380Z,247.50
2023-08-24T09:30:15.468Z,253.12
2023-08-24T09:31:15.378Z,253.12
2023-08-24T09:32:15.384Z,292.50
2023-08-24T09:33:15.372Z,410.62
2023-08-24T09:34:15.382Z,309.38
2023-08-24T09:35:15.318Z,405.00
2023-08-24T09:36:15.312Z,309.38
2023-08-24T09:37:15.276Z,320.62
2023-08-24T09:38:15.321Z,270.00
2023-08-24T09:39:15.340Z,393.75
2023-08-24T09:40:15.656Z,438.75
2023-08-24T09:41:15.276Z,438.75
2023-08-24T09:42:15.254Z,433.12
2023-08-24T09:43:15.277Z,438.75
2023-08-24T09:44:15.200Z,337.50
2023-08-24T09:45:15.783Z,315.00
2023-08-24T09:46:16.350Z,303.75
2023-08-24T09:47:15.150Z,438.75
2023-08-24T09:48:15.160Z,247.50
2023-08-24T09:49:15.308Z,416.25
2023-08-24T09:50:15.187Z,405.00
2023-08-24T09:51:15.152Z,405.00
2023-08-24T09:52:15.169Z,405.00
2023-08-24T09:53:15.120Z,405.00
2023-08-24T09:54:15.138Z,399.38
2023-08-24T09:55:15.093Z,405.00
2023-08-24T09:56:15.085Z,399.38
2023-08-24T09:57:15.073Z,405.00
2023-08-24T09:58:15.298Z,405.00
2023-08-24T09:59:15.164Z,405.00
2023-08-24T10:00:15.078Z,405.00
2023-08-24T10:01:15.142Z,405.00
2023-08-24T10:02:15.109Z,405.00
2023-08-24T10:03:15.088Z,410.62
2023-08-24T10:04:14.999Z,405.00
2023-08-24T10:05:25.709Z,410.62
2023-08-24T10:06:16.060Z,416.25
2023-08-24T10:07:14.957Z,416.25
2023-08-24T10:08:14.932Z,416.25
2023-08-24T10:09:14.953Z,416.25
2023-08-24T10:10:15.031Z,416.25
2023-08-24T10:11:16.296Z,410.62
2023-08-24T10:12:15.604Z,416.25
2023-08-24T10:13:14.869Z,416.25
2023-08-24T10:14:14.891Z,416.25
2023-08-24T10:15:15.100Z,416.25
2023-08-24T10:16:14.929Z,416.25
2023-08-24T10:17:15.750Z,416.25
2023-08-24T10:18:14.939Z,416.25
2023-08-24T10:19:14.882Z,421.88
2023-08-24T10:20:14.907Z,421.88
2023-08-24T10:21:14.906Z,421.88
2023-08-24T10:22:14.851Z,421.88
2023-08-24T10:23:14.800Z,421.88
2023-08-24T10:24:14.780Z,421.88
2023-08-24T10:25:14.768Z,427.50
2023-08-24T10:26:14.778Z,427.50
2023-08-24T10:27:14.750Z,427.50
2023-08-24T10:28:14.774Z,433.12
2023-08-24T10:29:14.725Z,433.12
2023-08-24T10:30:14.792Z,433.12
2023-08-24T10:31:14.813Z,433.12
2023-08-24T10:32:14.918Z,433.12
2023-08-24T10:33:14.788Z,433.12
2023-08-24T10:34:14.695Z,433.12
2023-08-24T10:35:15.443Z,433.12
2023-08-24T10:36:15.138Z,433.12
2023-08-24T10:37:14.711Z,438.75
2023-08-24T10:38:14.621Z,438.75
2023-08-24T10:39:14.715Z,433.12
2023-08-24T10:40:14.622Z,438.75
2023-08-24T10:41:15.720Z,438.75
2023-08-24T10:42:14.653Z,438.75
2023-08-24T10:43:14.591Z,438.75
2023-08-24T10:44:14.586Z,444.38
2023-08-24T10:45:14.599Z,444.38
2023-08-24T10:46:14.615Z,444.38
2023-08-24T10:47:14.693Z,438.75
2023-08-24T10:48:14.541Z,444.38
2023-08-24T10:49:14.527Z,444.38
2023-08-24T10:50:14.529Z,444.38
2023-08-24T10:51:14.497Z,450.00
2023-08-24T10:52:14.590Z,450.00
2023-08-24T10:53:14.511Z,455.62
2023-08-24T10:54:14.510Z,455.62
2023-08-24T10:55:14.522Z,455.62
2023-08-24T10:56:14.447Z,450.00
2023-08-24T10:57:14.524Z,455.62
2023-08-24T10:58:14.425Z,450.00
2023-08-24T10:59:14.461Z,450.00
2023-08-24T11:00:14.558Z,444.38
2023-08-24T11:01:14.482Z,450.00
2023-08-24T11:02:14.390Z,455.62
2023-08-24T11:03:14.451Z,455.62
2023-08-24T11:04:14.530Z,444.38
2023-08-24T11:05:14.403Z,444.38
2023-08-24T11:06:14.503Z,444.38
2023-08-24T11:07:14.397Z,444.38
2023-08-24T11:08:14.312Z,461.25
2023-08-24T11:09:14.420Z,455.62
2023-08-24T11:10:14.349Z,455.62
2023-08-24T11:11:14.395Z,461.25
2023-08-24T11:12:14.278Z,461.25
2023-08-24T11:13:14.343Z,466.88
2023-08-24T11:14:14.256Z,466.88
2023-08-24T11:15:14.235Z,466.88
2023-08-24T11:16:14.236Z,461.25
2023-08-24T11:17:14.284Z,472.50
2023-08-24T11:18:14.234Z,455.62
2023-08-24T11:19:14.376Z,461.25
2023-08-24T11:20:14.316Z,466.88
2023-08-24T11:21:14.190Z,461.25
2023-08-24T11:22:14.237Z,461.25
2023-08-24T11:23:14.408Z,461.25
2023-08-24T11:24:14.289Z,466.88
2023-08-24T11:25:14.254Z,466.88
2023-08-24T11:26:14.116Z,461.25
2023-08-24T11:27:14.379Z,466.88
2023-08-24T11:28:14.162Z,472.50
2023-08-24T11:29:14.168Z,472.50
2023-08-24T11:30:14.071Z,478.12
2023-08-24T11:31:14.141Z,478.12
2023-08-24T11:32:14.072Z,478.12
2023-08-24T11:33:14.062Z,478.12
2023-08-24T11:34:14.078Z,483.75
2023-08-24T11:35:14.139Z,483.75
2023-08-24T11:36:14.289Z,483.75
2023-08-24T11:37:14.042Z,483.75
2023-08-24T11:38:13.991Z,489.38
2023-08-24T11:39:14.016Z,489.38
2023-08-24T11:40:13.972Z,472.50
2023-08-24T11:41:14.220Z,478.12
2023-08-24T11:42:13.995Z,483.75
2023-08-24T11:43:14.002Z,483.75
2023-08-24T11:44:23.145Z,483.75
2023-08-24T11:45:14.959Z,483.75
2023-08-24T11:46:13.996Z,478.12
2023-08-24T11:47:13.949Z,478.12
2023-08-24T11:48:13.951Z,466.88
2023-08-24T11:49:13.918Z,478.12
2023-08-24T11:50:13.937Z,478.12
2023-08-24T11:51:14.228Z,472.50
2023-08-24T11:52:13.906Z,489.38
2023-08-24T11:53:13.901Z,495.00
2023-08-24T11:54:13.904Z,506.25
2023-08-24T11:55:13.856Z,495.00
2023-08-24T11:56:13.836Z,495.00
2023-08-24T11:57:13.880Z,500.62
2023-08-24T11:58:13.807Z,500.62
2023-08-24T11:59:13.786Z,495.00
2023-08-24T12:00:13.809Z,495.00
2023-08-24T12:01:13.866Z,495.00
2023-08-24T12:02:13.848Z,483.75
2023-08-24T12:03:13.776Z,495.00
2023-08-24T12:04:13.740Z,489.38
2023-08-24T12:05:13.772Z,483.75
2023-08-24T12:06:13.711Z,489.38
2023-08-24T12:07:13.757Z,489.38
2023-08-24T12:08:13.684Z,483.75
2023-08-24T12:09:13.843Z,483.75
2023-08-24T12:10:13.655Z,489.38
2023-08-24T12:11:13.708Z,478.12
2023-08-24T12:12:13.682Z,416.25
2023-08-24T12:13:13.736Z,444.38
2023-08-24T12:14:13.628Z,478.12
2023-08-24T12:15:13.643Z,489.38
2023-08-24T12:16:13.658Z,472.50
2023-08-24T12:17:13.643Z,483.75
2023-08-24T12:18:13.659Z,495.00
2023-08-24T12:19:13.607Z,489.38
2023-08-24T12:20:13.586Z,483.75
2023-08-24T12:21:13.582Z,489.38
2023-08-24T12:22:13.589Z,483.75
2023-08-24T12:23:13.582Z,478.12
2023-08-24T12:24:13.581Z,478.12
2023-08-24T12:25:13.508Z,444.38
2023-08-24T12:26:13.555Z,455.62
2023-08-24T12:27:13.519Z,450.00
2023-08-24T12:28:13.554Z,427.50
2023-08-24T12:29:13.532Z,438.75
2023-08-24T12:30:13.514Z,438.75
2023-08-24T12:31:13.566Z,427.50
2023-08-24T12:32:13.448Z,444.38
2023-08-24T12:33:13.532Z,466.88
2023-08-24T12:34:13.422Z,472.50
2023-08-24T12:35:13.578Z,472.50
2023-08-24T12:36:13.421Z,461.25
2023-08-24T12:37:13.455Z,466.88
2023-08-24T12:38:13.437Z,489.38
2023-08-24T12:39:13.379Z,478.12
2023-08-24T12:40:13.371Z,478.12
2023-08-24T12:41:13.378Z,478.12
2023-08-24T12:42:13.368Z,489.38
2023-08-24T12:43:13.390Z,478.12
2023-08-24T12:44:15.364Z,495.00
2023-08-24T12:45:13.339Z,511.88